Time;durP1;ratioP1;P1;durP2;ratioP2;P2;SDS_P1;SDS_P2;PMS_P1;PMS_P2;Temp;Humidity;BMP_temperature;BMP_pressure;BME280_temperature;BME280_humidity;BME280_pressure;Samples;Min_cycle;Max_cycle;Signal;HPM_P1;HPM_P2
2021/12/29 00:01:48;;;;;;;95.03;50.28;;;;;;;;;;5058543;28;20114;-73
2021/12/29 00:04:16;;;;;;;97.05;50.50;;;;;;;;;;5077486;28;20032;-73
2021/12/29 00:06:45;;;;;;;97.30;48.08;;;;;;;;;;5060162;28;20016;-73
2021/12/29 00:09:15;;;;;;;92.70;48.75;;;;;;;;;;5058852;28;20020;-73
2021/12/29 00:11:42;;;;;;;78.63;40.22;;;;;;;;;;5059082;28;20111;-73
2021/12/29 00:14:12;;;;;;;81.32;42.55;;;;;;;;;;5039750;28;20311;-72
2021/12/29 00:16:42;;;;;;;84.40;44.97;;;;;;;;;;5077132;28;20036;-73
2021/12/29 00:19:10;;;;;;;66.53;38.20;;;;;;;;;;5077210;28;20051;-73
2021/12/29 00:21:37;;;;;;;72.22;40.63;;;;;;;;;;5042308;28;20020;-72
2021/12/29 00:24:05;;;;;;;66.72;39.92;;;;;;;;;;5026315;28;20082;-72
2021/12/29 00:26:34;;;;;;;72.10;36.63;;;;;;;;;;5059908;28;20027;-72
2021/12/29 00:29:05;;;;;;;69.85;37.40;;;;;;;;;;5058202;28;20028;-74
2021/12/29 00:31:36;;;;;;;73.18;37.15;;;;;;;;;;5059796;28;20044;-73
2021/12/29 00:34:05;;;;;;;72.22;39.75;;;;;;;;;;5059555;28;20074;-73
2021/12/29 00:36:34;;;;;;;68.25;40.22;;;;;;;;;;5058331;28;20027;-73
2021/12/29 00:39:04;;;;;;;66.88;36.85;;;;;;;;;;5041759;28;20032;-73
2021/12/29 00:41:32;;;;;;;73.53;38.08;;;;;;;;;;5041990;28;20028;-73
2021/12/29 00:44:00;;;;;;;75.22;37.63;;;;;;;;;;5058773;28;20059;-73
2021/12/29 00:46:31;;;;;;;88.38;47.20;;;;;;;;;;5059023;28;20497;-73
2021/12/29 00:48:58;;;;;;;84.97;42.15;;;;;;;;;;5055161;28;20115;-72
2021/12/29 00:51:30;;;;;;;88.65;45.72;;;;;;;;;;5058296;28;20115;-73
2021/12/29 00:54:00;;;;;;;86.65;41.13;;;;;;;;;;5058300;28;20052;-73
2021/12/29 00:56:28;;;;;;;81.07;41.47;;;;;;;;;;5040625;28;20420;-73
2021/12/29 00:58:59;;;;;;;102.72;55.08;;;;;;;;;;5040404;28;20394;-73
2021/12/29 01:01:29;;;;;;;137.43;71.50;;;;;;;;;;5041480;28;20059;-73
2021/12/29 01:03:58;;;;;;;139.93;72.65;;;;;;;;;;5075573;28;20088;-73
2021/12/29 01:06:25;;;;;;;182.25;95.35;;;;;;;;;;5075739;28;20414;-73
2021/12/29 01:08:55;;;;;;;311.48;151.13;;;;;;;;;;5057799;28;20066;-72
2021/12/29 01:11:26;;;;;;;549.08;299.88;;;;;;;;;;5074727;28;20016;-73
2021/12/29 01:13:56;;;;;;;475.77;247.18;;;;;;;;;;5055736;28;20322;-73
2021/12/29 01:19:14;;;;;;;400.75;204.07;;;;;;;;;;5055518;28;20387;-73
2021/12/29 01:21:44;;;;;;;407.75;211.45;;;;;;;;;;5040712;28;20032;-73
2021/12/29 01:24:13;;;;;;;389.50;200.32;;;;;;;;;;5057290;28;20044;-73
2021/12/29 01:26:45;;;;;;;404.80;206.23;;;;;;;;;;5040045;28;20440;-73
2021/12/29 01:29:15;;;;;;;394.73;204.93;;;;;;;;;;5038145;28;20069;-73
2021/12/29 01:31:46;;;;;;;356.92;187.85;;;;;;;;;;5056939;28;20040;-73
2021/12/29 01:34:19;;;;;;;352.90;183.45;;;;;;;;;;5040360;28;20545;-73
2021/12/29 01:36:49;;;;;;;337.77;176.10;;;;;;;;;;5056526;28;20017;-73
2021/12/29 01:39:21;;;;;;;286.73;146.15;;;;;;;;;;5054951;28;20315;-73
2021/12/29 01:41:50;;;;;;;302.25;147.23;;;;;;;;;;5056376;28;20029;-73
2021/12/29 01:44:23;;;;;;;285.35;142.77;;;;;;;;;;5039139;28;20047;-73
2021/12/29 01:46:54;;;;;;;271.00;128.90;;;;;;;;;;5021912;28;20422;-73
2021/12/29 01:49:22;;;;;;;255.55;127.43;;;;;;;;;;5040623;28;20020;-73
2021/12/29 01:52:01;;;;;;;249.05;121.25;;;;;;;;;;5040402;28;20020;-73
2021/12/29 01:54:34;;;;;;;282.25;137.85;;;;;;;;;;5057478;28;20026;-73
2021/12/29 01:57:07;;;;;;;291.48;140.52;;;;;;;;;;5041443;28;20323;-73
2021/12/29 01:59:38;;;;;;;270.30;136.18;;;;;;;;;;5040545;28;20021;-73
2021/12/29 02:02:16;;;;;;;292.17;142.07;;;;;;;;;;5054009;28;20319;-73
2021/12/29 02:04:45;;;;;;;305.52;140.93;;;;;;;;;;5041607;28;20032;-73
2021/12/29 02:07:17;;;;;;;285.93;131.57;;;;;;;;;;5040752;28;20123;-73
2021/12/29 02:09:47;;;;;;;254.75;128.82;;;;;;;;;;5040211;28;20115;-73
2021/12/29 02:12:25;;;;;;;271.67;133.80;;;;;;;;;;5052473;28;20345;-73
2021/12/29 02:15:02;;;;;;;275.60;135.38;;;;;;;;;;5053171;28;20029;-73
2021/12/29 02:17:33;;;;;;;329.35;141.48;;;;;;;;;;5030219;28;20050;-74
2021/12/29 02:20:06;;;;;;;315.45;151.70;;;;;;;;;;5035313;28;20024;-73
2021/12/29 02:25:46;;;;;;;308.20;139.70;;;;;;;;;;5056509;28;20040;-73
2021/12/29 02:27:54;;;;;;;297.70;144.63;;;;;;;;;;5069645;28;20025;-73
2021/12/29 02:30:26;;;;;;;301.38;144.50;;;;;;;;;;5073192;28;20069;-74
2021/12/29 02:33:00;;;;;;;287.65;135.02;;;;;;;;;;5055879;28;20025;-74
2021/12/29 02:35:37;;;;;;;273.23;125.93;;;;;;;;;;5053307;28;20350;-74
2021/12/29 02:38:20;;;;;;;278.13;122.57;;;;;;;;;;5038622;28;20028;-74
2021/12/29 02:40:54;;;;;;;260.13;124.68;;;;;;;;;;5034907;28;20375;-73
2021/12/29 02:43:32;;;;;;;254.20;125.45;;;;;;;;;;5034769;28;20411;-74
2021/12/29 02:46:18;;;;;;;268.45;126.05;;;;;;;;;;5051581;28;20028;-74
2021/12/29 02:48:59;;;;;;;250.40;124.50;;;;;;;;;;5054640;28;20017;-73
2021/12/29 02:51:39;;;;;;;260.83;121.38;;;;;;;;;;5036836;28;20131;-73
2021/12/29 02:54:08;;;;;;;242.63;112.80;;;;;;;;;;5036104;28;20331;-74
2021/12/29 02:56:35;;;;;;;231.57;112.55;;;;;;;;;;5035846;28;20033;-74
2021/12/29 02:59:04;;;;;;;242.43;109.47;;;;;;;;;;5051391;28;20127;-74
2021/12/29 03:01:37;;;;;;;291.42;131.05;;;;;;;;;;5054603;28;20028;-74
2021/12/29 03:04:11;;;;;;;270.88;127.65;;;;;;;;;;5031660;28;20044;-73
2021/12/29 03:06:45;;;;;;;259.10;124.78;;;;;;;;;;5033744;28;20021;-74
2021/12/29 03:09:17;;;;;;;207.25;93.50;;;;;;;;;;5034021;28;20039;-74
2021/12/29 03:11:50;;;;;;;204.25;96.32;;;;;;;;;;5036865;28;20027;-74
2021/12/29 03:14:26;;;;;;;219.43;113.65;;;;;;;;;;5036497;28;20028;-73
2021/12/29 03:17:07;;;;;;;215.50;98.05;;;;;;;;;;5055537;28;20071;-74
2021/12/29 03:20:00;;;;;;;218.75;105.20;;;;;;;;;;5074162;28;20021;-74
2021/12/29 03:25:27;;;;;;;187.55;91.85;;;;;;;;;;5083645;22;20113;-73
2021/12/29 03:28:01;;;;;;;179.88;94.43;;;;;;;;;;5038039;28;20334;-74
2021/12/29 03:30:43;;;;;;;191.85;93.32;;;;;;;;;;5037697;28;20081;-74
2021/12/29 03:33:38;;;;;;;206.00;103.45;;;;;;;;;;5049354;22;20048;-74
2021/12/29 03:36:13;;;;;;;193.85;93.85;;;;;;;;;;5055791;28;20025;-75
2021/12/29 03:39:23;;;;;;;183.85;95.53;;;;;;;;;;5027385;28;20032;-75
2021/12/29 03:42:09;;;;;;;194.27;92.72;;;;;;;;;;5039252;28;20040;-74
2021/12/29 03:45:04;;;;;;;206.25;108.22;;;;;;;;;;5039261;28;20048;-73
2021/12/29 03:48:14;;;;;;;209.25;93.88;;;;;;;;;;5073876;22;20105;-74
2021/12/29 03:51:24;;;;;;;180.32;92.00;;;;;;;;;;5046361;22;20049;-73
2021/12/29 03:57:02;;;;;;;169.05;79.88;;;;;;;;;;5083836;22;20040;-73
2021/12/29 03:59:56;;;;;;;181.00;88.82;;;;;;;;;;5031283;28;20131;-74
2021/12/29 04:02:52;;;;;;;175.38;85.35;;;;;;;;;;5033295;22;20060;-74
2021/12/29 04:05:34;;;;;;;166.98;83.55;;;;;;;;;;5019537;28;20343;-74
2021/12/29 04:08:44;;;;;;;166.38;82.15;;;;;;;;;;5025873;28;20029;-75
2021/12/29 04:11:27;;;;;;;175.95;82.82;;;;;;;;;;5032754;28;20192;-74
2021/12/29 04:13:56;;;;;;;170.23;88.68;;;;;;;;;;5003312;28;20018;-74
2021/12/29 04:16:23;;;;;;;170.88;79.60;;;;;;;;;;5018374;28;20045;-73
2021/12/29 04:24:57;;;;;;;9.80;9.00;;;;;;;;;;5033402;28;20049;-74
2021/12/29 04:27:27;;;;;;;3.60;3.40;;;;;;;;;;5032966;28;20025;-74
2021/12/29 04:29:59;;;;;;;15.70;11.30;;;;;;;;;;5029575;28;20036;-74
2021/12/29 04:32:27;;;;;;;16.58;8.48;;;;;;;;;;5016266;28;20068;-74
2021/12/29 04:34:53;;;;;;;12.55;9.98;;;;;;;;;;5032342;28;20116;-73
2021/12/29 04:37:20;;;;;;;10.43;9.43;;;;;;;;;;5031464;28;20025;-73
2021/12/29 04:39:46;;;;;;;17.00;8.80;;;;;;;;;;5016427;28;20033;-72
2021/12/29 04:42:15;;;;;;;14.52;13.07;;;;;;;;;;5015052;28;20063;-73
2021/12/29 04:44:44;;;;;;;12.68;9.55;;;;;;;;;;5014850;28;20041;-72
2021/12/29 04:47:17;;;;;;;9.25;8.55;;;;;;;;;;5015935;28;20291;-73
2021/12/29 04:49:48;;;;;;;9.98;9.07;;;;;;;;;;5015673;28;20322;-72
2021/12/29 04:52:15;;;;;;;10.45;9.55;;;;;;;;;;5017298;28;20044;-73
2021/12/29 04:54:44;;;;;;;9.68;8.85;;;;;;;;;;5035203;28;20025;-72
2021/12/29 04:57:15;;;;;;;5.03;4.57;;;;;;;;;;5017255;28;20423;-71
2021/12/29 04:59:41;;;;;;;14.50;10.93;;;;;;;;;;5016437;28;20025;-71
2021/12/29 05:02:07;;;;;;;8.15;7.55;;;;;;;;;;5017547;28;20026;-71
2021/12/29 05:04:35;;;;;;;5.88;5.47;;;;;;;;;;5048786;28;20447;-71
2021/12/29 05:09:47;;;;;;;11.60;10.48;;;;;;;;;;5035917;28;20440;-71
2021/12/29 05:12:13;;;;;;;11.73;10.20;;;;;;;;;;5055991;28;20040;-71
2021/12/29 05:14:39;;;;;;;10.95;8.40;;;;;;;;;;5052736;28;20021;-71
2021/12/29 05:17:06;;;;;;;17.10;13.38;;;;;;;;;;5053336;28;20290;-72
2021/12/29 05:19:32;;;;;;;11.65;10.05;;;;;;;;;;5035569;28;20021;-71
2021/12/29 05:21:58;;;;;;;3.45;3.10;;;;;;;;;;5037772;28;20020;-72
2021/12/29 05:24:25;;;;;;;8.10;7.38;;;;;;;;;;5036485;28;20032;-72
2021/12/29 05:26:51;;;;;;;14.52;10.45;;;;;;;;;;5035150;28;20035;-72
2021/12/29 05:29:17;;;;;;;13.60;11.10;;;;;;;;;;5034439;28;20269;-71
2021/12/29 05:31:43;;;;;;;11.73;10.55;;;;;;;;;;5034542;28;20021;-72
2021/12/29 05:34:09;;;;;;;15.80;11.95;;;;;;;;;;5032817;28;20369;-72
2021/12/29 05:36:36;;;;;;;10.35;8.55;;;;;;;;;;5033994;28;20067;-72
2021/12/29 05:39:03;;;;;;;10.75;6.40;;;;;;;;;;5051694;28;20031;-71
2021/12/29 05:41:29;;;;;;;12.98;11.50;;;;;;;;;;5017631;28;20112;-71
2021/12/29 05:43:56;;;;;;;8.52;7.50;;;;;;;;;;5052605;28;20164;-71
2021/12/29 05:46:22;;;;;;;10.18;5.38;;;;;;;;;;5017299;28;20021;-71
2021/12/29 05:48:48;;;;;;;10.10;8.65;;;;;;;;;;5033639;28;20120;-71
2021/12/29 05:51:14;;;;;;;8.18;7.53;;;;;;;;;;5051391;28;20123;-71
2021/12/29 05:53:41;;;;;;;7.15;6.57;;;;;;;;;;5051041;28;20031;-71
2021/12/29 05:56:08;;;;;;;8.77;6.97;;;;;;;;;;5033556;28;20031;-71
2021/12/29 05:58:34;;;;;;;9.23;8.35;;;;;;;;;;5017627;28;20287;-71
2021/12/29 06:01:00;;;;;;;10.82;9.90;;;;;;;;;;5034690;28;20028;-71
2021/12/29 06:03:26;;;;;;;10.57;8.80;;;;;;;;;;5035565;28;20078;-72
2021/12/29 06:05:53;;;;;;;12.77;7.00;;;;;;;;;;5034028;28;20338;-72
2021/12/29 06:08:19;;;;;;;23.98;14.32;;;;;;;;;;5052276;28;20032;-71
2021/12/29 06:10:45;;;;;;;9.88;9.07;;;;;;;;;;5034378;28;20070;-72
2021/12/29 06:13:11;;;;;;;14.80;13.20;;;;;;;;;;5051766;28;20057;-72
2021/12/29 06:15:38;;;;;;;13.43;12.43;;;;;;;;;;5052261;28;20070;-72
2021/12/29 06:18:05;;;;;;;12.60;11.60;;;;;;;;;;5035858;28;20017;-72
2021/12/29 06:20:38;;;;;;;8.38;7.57;;;;;;;;;;5035537;28;20092;-72
2021/12/29 06:23:06;;;;;;;13.60;12.32;;;;;;;;;;5034598;28;20531;-72
2021/12/29 06:25:33;;;;;;;32.80;20.13;;;;;;;;;;5053460;28;20192;-72
2021/12/29 06:27:59;;;;;;;23.88;13.77;;;;;;;;;;5034042;28;20090;-73
2021/12/29 06:30:25;;;;;;;9.40;8.10;;;;;;;;;;5036017;28;20048;-73
2021/12/29 06:32:53;;;;;;;14.45;13.05;;;;;;;;;;5032127;28;20025;-74
2021/12/29 06:35:19;;;;;;;11.68;9.95;;;;;;;;;;5019279;28;20419;-73
2021/12/29 06:37:52;;;;;;;11.52;4.90;;;;;;;;;;5033929;28;20025;-74
2021/12/29 06:40:21;;;;;;;11.45;9.40;;;;;;;;;;5011460;28;20025;-73
2021/12/29 06:42:48;;;;;;;10.10;9.05;;;;;;;;;;5052902;28;20095;-73
2021/12/29 06:45:14;;;;;;;6.68;6.10;;;;;;;;;;5034316;28;20040;-73
2021/12/29 06:47:41;;;;;;;6.35;5.68;;;;;;;;;;5021752;28;20035;-73
2021/12/29 06:50:08;;;;;;;10.85;6.65;;;;;;;;;;5037563;28;20145;-72
2021/12/29 06:52:37;;;;;;;11.10;8.18;;;;;;;;;;5019836;28;20036;-72
2021/12/29 06:55:04;;;;;;;9.80;8.73;;;;;;;;;;5054747;28;20035;-72
2021/12/29 06:57:35;;;;;;;12.20;10.10;;;;;;;;;;5037315;28;20049;-73
2021/12/29 07:00:03;;;;;;;4.60;4.20;;;;;;;;;;5020268;28;20349;-72
2021/12/29 07:02:29;;;;;;;7.70;7.00;;;;;;;;;;5036205;28;20086;-72
2021/12/29 07:04:56;;;;;;;5.78;5.22;;;;;;;;;;5019740;28;20298;-72
2021/12/29 07:07:22;;;;;;;4.78;4.10;;;;;;;;;;5036406;28;20106;-72
2021/12/29 07:09:51;;;;;;;11.48;7.80;;;;;;;;;;5034886;28;20044;-72
2021/12/29 07:12:19;;;;;;;6.05;5.57;;;;;;;;;;5020221;28;20075;-74
2021/12/29 07:14:45;;;;;;;8.70;8.02;;;;;;;;;;5054054;28;20017;-72
2021/12/29 07:17:22;;;;;;;6.22;5.65;;;;;;;;;;5053552;28;20078;-74
2021/12/29 07:19:51;;;;;;;12.70;8.73;;;;;;;;;;5038066;28;20112;-72
2021/12/29 07:22:17;;;;;;;8.20;4.85;;;;;;;;;;5056839;28;20317;-71
2021/12/29 07:24:47;;;;;;;7.18;6.50;;;;;;;;;;5038559;28;20056;-72
2021/12/29 07:27:13;;;;;;;4.85;4.47;;;;;;;;;;5022766;28;20151;-71
2021/12/29 07:29:39;;;;;;;8.13;6.90;;;;;;;;;;5056759;28;20071;-72
2021/12/29 07:32:05;;;;;;;5.35;4.95;;;;;;;;;;5055168;28;20033;-73
2021/12/29 07:34:32;;;;;;;15.02;8.18;;;;;;;;;;5023032;28;20090;-71
2021/12/29 07:37:01;;;;;;;6.10;5.25;;;;;;;;;;5056977;28;20158;-72
2021/12/29 07:39:27;;;;;;;4.57;4.20;;;;;;;;;;5057105;28;20024;-73
2021/12/29 07:41:54;;;;;;;12.15;9.85;;;;;;;;;;5056482;28;20031;-73
2021/12/29 07:44:22;;;;;;;5.15;4.72;;;;;;;;;;5022407;28;20166;-73
2021/12/29 07:46:53;;;;;;;9.77;7.43;;;;;;;;;;5056374;28;20020;-72
2021/12/29 07:49:20;;;;;;;24.23;8.07;;;;;;;;;;5023198;28;20433;-72
2021/12/29 07:51:48;;;;;;;10.18;5.78;;;;;;;;;;5038528;28;20013;-72
2021/12/29 07:54:14;;;;;;;6.25;5.75;;;;;;;;;;5039208;28;20052;-71
2021/12/29 07:56:41;;;;;;;11.00;4.82;;;;;;;;;;5037933;28;20064;-73
2021/12/29 07:59:07;;;;;;;6.35;5.78;;;;;;;;;;5055304;28;20021;-72
2021/12/29 08:01:33;;;;;;;7.68;4.63;;;;;;;;;;5038906;28;20031;-73
2021/12/29 08:03:59;;;;;;;5.32;4.75;;;;;;;;;;5037357;28;20110;-73
2021/12/29 08:06:27;;;;;;;6.18;5.78;;;;;;;;;;5036806;28;20025;-73
2021/12/29 08:08:53;;;;;;;3.17;2.95;;;;;;;;;;5037278;28;20024;-72
2021/12/29 08:11:20;;;;;;;36.22;7.38;;;;;;;;;;5036989;28;20021;-73
2021/12/29 08:13:47;;;;;;;10.75;8.32;;;;;;;;;;5021765;28;20312;-71
2021/12/29 08:16:13;;;;;;;8.75;5.15;;;;;;;;;;5038428;28;20021;-72
2021/12/29 08:18:39;;;;;;;6.55;5.95;;;;;;;;;;5056318;28;20494;-73
2021/12/29 08:21:08;;;;;;;3.70;3.47;;;;;;;;;;5024145;28;20048;-70
2021/12/29 08:23:35;;;;;;;7.75;7.13;;;;;;;;;;5056824;28;20079;-73
2021/12/29 08:26:04;;;;;;;3.15;2.85;;;;;;;;;;5057109;28;20124;-71
2021/12/29 08:28:30;;;;;;;8.30;4.07;;;;;;;;;;5022708;28;20103;-71
2021/12/29 08:30:56;;;;;;;10.43;6.63;;;;;;;;;;5038547;28;20392;-72
2021/12/29 08:33:22;;;;;;;5.43;4.88;;;;;;;;;;5038147;28;20025;-72
2021/12/29 08:35:49;;;;;;;8.13;5.68;;;;;;;;;;5056958;28;20040;-71
2021/12/29 08:38:15;;;;;;;5.35;3.97;;;;;;;;;;5022544;28;20013;-71
2021/12/29 08:40:41;;;;;;;11.95;5.38;;;;;;;;;;5056868;28;20343;-72
2021/12/29 08:43:07;;;;;;;8.30;5.10;;;;;;;;;;5056139;28;20371;-72
2021/12/29 08:45:34;;;;;;;2.33;2.22;;;;;;;;;;5038616;28;20032;-72
2021/12/29 08:48:01;;;;;;;11.13;5.43;;;;;;;;;;5055812;28;20338;-72
2021/12/29 08:50:31;;;;;;;17.15;5.88;;;;;;;;;;5055595;28;20021;-71
2021/12/29 08:52:58;;;;;;;4.80;4.40;;;;;;;;;;5038266;28;20083;-71
2021/12/29 08:55:24;;;;;;;6.35;5.40;;;;;;;;;;5055858;28;20025;-72
2021/12/29 08:57:50;;;;;;;6.95;6.20;;;;;;;;;;5034613;28;20078;-72
2021/12/29 09:00:17;;;;;;;7.28;5.32;;;;;;;;;;5017340;28;20021;-72
2021/12/29 09:02:44;;;;;;;5.13;4.10;;;;;;;;;;5021934;28;20120;-72
2021/12/29 09:05:11;;;;;;;3.88;3.20;;;;;;;;;;5055318;28;20120;-71
2021/12/29 09:07:37;;;;;;;9.40;6.13;;;;;;;;;;5051965;28;20027;-72
2021/12/29 09:10:04;;;;;;;8.15;7.40;;;;;;;;;;5038315;28;20025;-72
2021/12/29 09:12:30;;;;;;;7.82;3.45;;;;;;;;;;5038354;28;20013;-72
2021/12/29 09:14:57;;;;;;;5.18;4.78;;;;;;;;;;5056354;28;20107;-72
2021/12/29 09:17:24;;;;;;;3.75;3.45;;;;;;;;;;5056229;28;20376;-72
2021/12/29 09:19:50;;;;;;;15.23;8.52;;;;;;;;;;5056010;28;20040;-72
2021/12/29 09:22:17;;;;;;;14.73;4.10;;;;;;;;;;5039092;28;20305;-72
2021/12/29 09:24:46;;;;;;;3.78;3.50;;;;;;;;;;5057155;28;20430;-72
2021/12/29 09:27:12;;;;;;;4.47;4.18;;;;;;;;;;5022117;28;20051;-72
2021/12/29 09:29:38;;;;;;;7.60;5.55;;;;;;;;;;5056687;28;20318;-72
2021/12/29 09:32:05;;;;;;;5.85;4.82;;;;;;;;;;5038427;28;20023;-72
2021/12/29 09:34:32;;;;;;;20.77;6.30;;;;;;;;;;5038327;28;20098;-72
2021/12/29 09:37:00;;;;;;;12.85;6.63;;;;;;;;;;5056412;28;20025;-72
2021/12/29 09:39:26;;;;;;;14.30;7.20;;;;;;;;;;5022516;28;20028;-72
2021/12/29 09:41:53;;;;;;;15.13;5.20;;;;;;;;;;5038677;28;20110;-72
2021/12/29 09:44:20;;;;;;;9.52;7.40;;;;;;;;;;5040276;28;20461;-72
2021/12/29 09:46:48;;;;;;;22.60;8.35;;;;;;;;;;5039272;28;20445;-72
2021/12/29 09:49:15;;;;;;;3.22;3.03;;;;;;;;;;5038461;28;20399;-72
2021/12/29 09:51:41;;;;;;;6.65;6.07;;;;;;;;;;5019191;28;20021;-72
2021/12/29 09:54:07;;;;;;;5.55;5.00;;;;;;;;;;5021925;28;20326;-72
2021/12/29 09:56:33;;;;;;;6.43;5.85;;;;;;;;;;5055974;28;20079;-72
2021/12/29 09:59:00;;;;;;;8.32;6.68;;;;;;;;;;5038289;28;20060;-72
2021/12/29 10:01:26;;;;;;;14.07;6.57;;;;;;;;;;5038461;28;20020;-72
2021/12/29 10:03:52;;;;;;;4.30;4.00;;;;;;;;;;5021849;28;20045;-72
2021/12/29 10:06:18;;;;;;;5.30;4.90;;;;;;;;;;5055494;28;20388;-72
2021/12/29 10:08:47;;;;;;;4.80;4.38;;;;;;;;;;5021814;28;20028;-72
2021/12/29 10:11:18;;;;;;;8.52;5.75;;;;;;;;;;5038546;28;20017;-72
2021/12/29 10:13:45;;;;;;;6.60;6.10;;;;;;;;;;5037795;28;20021;-72
2021/12/29 10:16:13;;;;;;;6.72;6.10;;;;;;;;;;5037768;28;20369;-72
2021/12/29 10:18:43;;;;;;;8.25;7.63;;;;;;;;;;5021901;28;20032;-72
2021/12/29 10:21:14;;;;;;;7.50;5.65;;;;;;;;;;5039628;28;20016;-72
2021/12/29 10:23:47;;;;;;;6.32;5.78;;;;;;;;;;5060039;28;20442;-72
2021/12/29 10:26:13;;;;;;;7.07;6.47;;;;;;;;;;5025934;28;20111;-72
2021/12/29 10:28:41;;;;;;;20.60;10.65;;;;;;;;;;5041880;28;20419;-73
2021/12/29 10:31:08;;;;;;;7.50;5.28;;;;;;;;;;5042254;28;20378;-73
2021/12/29 10:33:38;;;;;;;10.10;7.07;;;;;;;;;;5024738;28;20048;-72
2021/12/29 10:36:14;;;;;;;3.60;3.37;;;;;;;;;;5025297;28;20025;-73
2021/12/29 10:38:42;;;;;;;29.75;10.73;;;;;;;;;;5059281;28;20450;-73
2021/12/29 10:41:10;;;;;;;5.45;5.07;;;;;;;;;;5041865;28;20021;-73
2021/12/29 10:43:37;;;;;;;7.85;4.78;;;;;;;;;;5025528;28;20131;-73
2021/12/29 10:46:05;;;;;;;17.05;9.45;;;;;;;;;;5025868;28;20048;-72
2021/12/29 10:48:32;;;;;;;12.00;5.45;;;;;;;;;;5025705;28;20059;-73
2021/12/29 10:51:07;;;;;;;8.02;7.40;;;;;;;;;;5040519;28;20111;-72
2021/12/29 10:53:34;;;;;;;18.65;4.53;;;;;;;;;;5041528;28;20021;-73
2021/12/29 10:56:02;;;;;;;12.75;8.50;;;;;;;;;;5042017;28;20124;-72
2021/12/29 10:58:33;;;;;;;5.97;3.72;;;;;;;;;;5042041;28;20025;-73
2021/12/29 11:00:59;;;;;;;8.07;7.40;;;;;;;;;;5041967;28;20021;-72
2021/12/29 11:03:26;;;;;;;15.60;4.32;;;;;;;;;;5041069;28;20489;-72
2021/12/29 11:05:58;;;;;;;18.30;10.65;;;;;;;;;;5042163;28;20308;-72
2021/12/29 11:08:29;;;;;;;4.03;3.78;;;;;;;;;;5041562;28;20013;-72
2021/12/29 11:11:01;;;;;;;8.23;7.53;;;;;;;;;;5059794;28;20021;-72
2021/12/29 11:13:28;;;;;;;30.25;5.85;;;;;;;;;;5025599;28;20102;-72
2021/12/29 11:15:55;;;;;;;4.18;3.70;;;;;;;;;;5025131;28;20360;-72
2021/12/29 11:18:27;;;;;;;4.93;4.63;;;;;;;;;;5058351;28;20427;-74
2021/12/29 11:20:59;;;;;;;11.23;10.27;;;;;;;;;;5040036;28;20458;-73
2021/12/29 11:23:41;;;;;;;26.63;11.75;;;;;;;;;;5058048;28;20340;-72
2021/12/29 11:26:13;;;;;;;6.07;5.45;;;;;;;;;;5040933;28;20017;-73
2021/12/29 11:28:46;;;;;;;9.75;5.57;;;;;;;;;;4980922;28;20038;-73
2021/12/29 11:31:27;;;;;;;3.83;3.60;;;;;;;;;;4965152;28;20041;-72
2021/12/29 11:34:13;;;;;;;9.13;7.20;;;;;;;;;;4996341;28;20428;-72
2021/12/29 11:37:11;;;;;;;6.65;3.95;;;;;;;;;;4997376;28;20125;-72
2021/12/29 11:39:49;;;;;;;8.13;6.45;;;;;;;;;;4980723;28;20457;-72
2021/12/29 11:42:41;;;;;;;12.02;9.25;;;;;;;;;;4997037;28;20034;-73
2021/12/29 11:45:09;;;;;;;6.82;6.22;;;;;;;;;;4980915;28;20146;-72
2021/12/29 11:47:38;;;;;;;6.32;5.85;;;;;;;;;;4978775;28;20061;-72
2021/12/29 11:50:05;;;;;;;12.25;8.85;;;;;;;;;;4980803;28;20022;-72
2021/12/29 11:52:34;;;;;;;11.52;9.88;;;;;;;;;;4997251;28;20057;-72
2021/12/29 11:55:21;;;;;;;8.67;7.97;;;;;;;;;;4981149;28;20333;-72
2021/12/29 11:57:48;;;;;;;12.18;7.30;;;;;;;;;;4965393;28;20121;-72
2021/12/29 12:00:20;;;;;;;10.88;8.98;;;;;;;;;;4981348;28;20499;-72
2021/12/29 12:02:47;;;;;;;9.30;8.60;;;;;;;;;;4965093;28;20026;-72
2021/12/29 12:05:16;;;;;;;7.22;6.10;;;;;;;;;;4981130;28;20065;-72
2021/12/29 12:07:42;;;;;;;9.30;8.52;;;;;;;;;;4997870;28;20456;-72
2021/12/29 12:10:12;;;;;;;9.10;8.45;;;;;;;;;;4981089;28;20034;-72
2021/12/29 12:12:39;;;;;;;18.85;10.00;;;;;;;;;;4997490;28;20029;-72
2021/12/29 12:15:09;;;;;;;6.63;6.00;;;;;;;;;;4980863;28;20018;-72
2021/12/29 12:17:35;;;;;;;6.80;6.30;;;;;;;;;;4996762;28;20022;-72
2021/12/29 12:20:07;;;;;;;6.60;5.97;;;;;;;;;;5055171;28;20029;-72
2021/12/29 12:22:45;;;;;;;4.55;3.28;;;;;;;;;;5040606;28;20017;-72
2021/12/29 12:25:11;;;;;;;9.38;8.52;;;;;;;;;;5023838;28;20068;-72
2021/12/29 12:27:41;;;;;;;4.72;4.40;;;;;;;;;;5041130;28;20074;-72
2021/12/29 12:30:07;;;;;;;7.53;6.82;;;;;;;;;;5040076;28;20021;-72
2021/12/29 12:32:41;;;;;;;9.68;8.73;;;;;;;;;;5040114;28;20378;-72
2021/12/29 12:35:08;;;;;;;6.65;4.25;;;;;;;;;;5023758;28;20017;-72
2021/12/29 12:37:45;;;;;;;8.10;6.82;;;;;;;;;;5039903;28;20024;-72
2021/12/29 12:40:11;;;;;;;10.52;7.07;;;;;;;;;;5039754;28;20017;-73
2021/12/29 12:42:39;;;;;;;16.55;10.32;;;;;;;;;;5040277;28;20083;-72
2021/12/29 12:45:16;;;;;;;5.00;4.32;;;;;;;;;;5057598;28;20033;-72
2021/12/29 12:47:42;;;;;;;5.93;3.97;;;;;;;;;;5058019;28;20025;-72
2021/12/29 12:50:08;;;;;;;7.57;7.00;;;;;;;;;;5057778;28;20021;-72
2021/12/29 12:52:42;;;;;;;5.68;5.10;;;;;;;;;;5023881;28;20044;-72
2021/12/29 12:55:09;;;;;;;4.50;4.20;;;;;;;;;;5057529;28;20017;-72
2021/12/29 12:57:41;;;;;;;12.52;6.95;;;;;;;;;;5057826;28;20021;-72
2021/12/29 13:00:27;;;;;;;6.60;6.10;;;;;;;;;;5023328;28;20423;-72
2021/12/29 13:02:53;;;;;;;13.13;9.50;;;;;;;;;;5056745;28;20393;-72
2021/12/29 13:05:21;;;;;;;9.10;7.25;;;;;;;;;;5056989;28;20041;-72
2021/12/29 13:07:59;;;;;;;6.10;5.60;;;;;;;;;;5057710;28;20056;-72
2021/12/29 13:10:29;;;;;;;7.95;6.85;;;;;;;;;;5057337;28;20020;-72
2021/12/29 13:13:00;;;;;;;11.23;5.65;;;;;;;;;;5057681;28;20017;-73
2021/12/29 13:15:28;;;;;;;9.60;8.65;;;;;;;;;;5023243;28;20021;-72
2021/12/29 13:17:54;;;;;;;7.55;7.03;;;;;;;;;;5057231;28;20023;-72
2021/12/29 13:20:20;;;;;;;10.23;7.93;;;;;;;;;;5038482;28;20045;-72
2021/12/29 13:22:47;;;;;;;11.10;9.98;;;;;;;;;;5057250;28;20027;-72
2021/12/29 13:25:18;;;;;;;8.80;8.02;;;;;;;;;;5056950;28;20331;-72
2021/12/29 13:27:55;;;;;;;8.85;6.82;;;;;;;;;;5057382;28;20021;-73
2021/12/29 13:30:24;;;;;;;10.85;9.95;;;;;;;;;;5022601;28;20025;-72
2021/12/29 13:32:51;;;;;;;6.70;5.65;;;;;;;;;;5057344;28;20071;-72
2021/12/29 13:35:22;;;;;;;22.27;8.95;;;;;;;;;;5023063;28;20334;-72
2021/12/29 13:37:49;;;;;;;9.57;8.75;;;;;;;;;;5056611;28;20020;-72
2021/12/29 13:40:18;;;;;;;22.40;13.38;;;;;;;;;;5057161;28;20055;-72
2021/12/29 13:42:44;;;;;;;11.55;10.45;;;;;;;;;;5038828;28;20012;-72
2021/12/29 13:45:21;;;;;;;10.73;9.75;;;;;;;;;;5057120;28;20067;-72
2021/12/29 13:47:48;;;;;;;16.42;14.82;;;;;;;;;;5006780;28;20314;-72
2021/12/29 13:50:14;;;;;;;11.23;10.07;;;;;;;;;;5056405;28;20112;-72
2021/12/29 13:52:41;;;;;;;11.13;10.10;;;;;;;;;;5039096;28;20024;-72
2021/12/29 13:55:08;;;;;;;18.35;16.73;;;;;;;;;;5038497;28;20032;-72
2021/12/29 13:57:34;;;;;;;10.68;9.65;;;;;;;;;;5056937;28;20017;-73
2021/12/29 14:00:00;;;;;;;13.18;11.60;;;;;;;;;;5056877;28;20454;-72
2021/12/29 14:02:26;;;;;;;27.13;16.67;;;;;;;;;;5056691;28;20112;-72
2021/12/29 14:04:52;;;;;;;19.20;14.85;;;;;;;;;;5057281;28;20029;-72
2021/12/29 14:07:20;;;;;;;18.40;15.80;;;;;;;;;;5038782;28;20034;-72
2021/12/29 14:09:46;;;;;;;52.67;13.35;;;;;;;;;;5022787;28;20415;-72
2021/12/29 14:12:20;;;;;;;15.40;13.95;;;;;;;;;;5039462;28;20025;-72
2021/12/29 14:14:57;;;;;;;14.90;13.40;;;;;;;;;;5056634;28;20415;-72
2021/12/29 14:17:24;;;;;;;11.43;10.55;;;;;;;;;;5056499;28;20021;-72
2021/12/29 14:19:52;;;;;;;13.73;12.65;;;;;;;;;;5022488;28;20021;-72
2021/12/29 14:22:29;;;;;;;15.13;13.85;;;;;;;;;;5039191;28;20017;-72
2021/12/29 14:24:55;;;;;;;16.20;10.68;;;;;;;;;;5038209;28;20039;-72
2021/12/29 14:27:24;;;;;;;13.55;12.25;;;;;;;;;;5039411;28;20021;-72
2021/12/29 14:29:50;;;;;;;16.90;14.05;;;;;;;;;;5056577;28;20104;-72
2021/12/29 14:32:20;;;;;;;10.70;9.65;;;;;;;;;;5021866;28;20419;-72
2021/12/29 14:34:52;;;;;;;48.80;14.98;;;;;;;;;;5056252;28;20397;-72
2021/12/29 14:37:19;;;;;;;10.07;8.55;;;;;;;;;;5056047;28;20369;-72
2021/12/29 14:39:46;;;;;;;10.68;9.75;;;;;;;;;;5022389;28;20017;-72
2021/12/29 14:42:17;;;;;;;15.57;14.10;;;;;;;;;;5022499;28;20075;-72
2021/12/29 14:44:49;;;;;;;26.75;15.38;;;;;;;;;;5056541;28;20090;-72
2021/12/29 14:47:16;;;;;;;11.43;9.70;;;;;;;;;;5022513;28;20016;-72
2021/12/29 14:49:43;;;;;;;12.45;11.25;;;;;;;;;;5022302;28;20029;-72
2021/12/29 14:52:11;;;;;;;16.02;11.00;;;;;;;;;;5038170;28;20473;-72
2021/12/29 14:54:40;;;;;;;12.45;10.85;;;;;;;;;;5038453;28;20150;-73
2021/12/29 14:57:20;;;;;;;12.85;11.80;;;;;;;;;;5038213;28;20013;-72
2021/12/29 14:59:46;;;;;;;16.42;15.25;;;;;;;;;;5038657;28;20021;-72
2021/12/29 15:02:15;;;;;;;13.77;12.68;;;;;;;;;;5056015;28;20033;-72
2021/12/29 15:04:42;;;;;;;15.45;14.23;;;;;;;;;;5038368;28;20123;-72